Time;durP1;ratioP1;P1;durP2;ratioP2;P2;SDS_P1;SDS_P2;PMS_P1;PMS_P2;Temp;Humidity;BMP_temperature;BMP_pressure;BME280_temperature;BME280_humidity;BME280_pressure;Samples;Min_cycle;Max_cycle;Signal;HPM_P1;HPM_P2
2022/07/09 00:00:54;;;;;;;;;13.00;13.00;23.90;51.40;;;;;;5098454;28;8752;-81
2022/07/09 00:03:20;;;;;;;;;13.67;12.00;23.90;51.50;;;;;;5097993;28;8799;-82
2022/07/09 00:05:48;;;;;;;;;13.00;13.00;23.80;51.70;;;;;;5098093;28;8782;-81
2022/07/09 00:08:14;;;;;;;;;9.67;9.67;23.80;51.90;;;;;;5097774;28;8756;-82
2022/07/09 00:10:40;;;;;;;;;10.00;10.00;23.50;52.60;;;;;;5097944;28;8775;-82
2022/07/09 00:13:06;;;;;;;;;11.67;11.00;23.50;52.90;;;;;;5097632;28;9421;-81
2022/07/09 00:15:31;;;;;;;;;4.33;4.33;23.50;52.70;;;;;;5097660;28;8795;-80
2022/07/09 00:17:57;;;;;;;;;11.00;11.00;23.50;52.60;;;;;;5097677;28;8779;-81
2022/07/09 00:20:23;;;;;;;;;12.67;12.00;23.50;52.70;;;;;;5097354;28;8884;-81
2022/07/09 00:22:49;;;;;;;;;11.00;11.00;23.50;52.70;;;;;;5097337;28;11440;-81
2022/07/09 00:25:15;;;;;;;;;11.33;11.33;23.40;52.90;;;;;;5097428;28;8853;-81
2022/07/09 00:27:41;;;;;;;;;9.00;9.00;23.60;52.60;;;;;;5079441;28;8798;-80
2022/07/09 00:30:07;;;;;;;;;14.00;13.00;23.40;52.80;;;;;;5097408;28;8760;-80
2022/07/09 00:32:33;;;;;;;;;10.00;10.00;23.60;52.30;;;;;;5097246;28;8786;-80
2022/07/09 00:34:59;;;;;;;;;11.33;11.33;23.60;52.00;;;;;;5097165;28;12033;-81
2022/07/09 00:37:25;;;;;;;;;12.00;12.00;23.60;52.20;;;;;;5097445;28;8853;-81
2022/07/09 00:39:50;;;;;;;;;10.33;10.33;23.40;52.70;;;;;;5097445;28;8768;-80
2022/07/09 00:42:17;;;;;;;;;7.00;7.00;23.20;53.80;;;;;;5095529;28;8878;-81
2022/07/09 00:44:43;;;;;;;;;8.67;8.67;23.20;53.30;;;;;;5097326;28;8792;-81
2022/07/09 00:47:09;;;;;;;;;11.00;11.00;23.30;53.00;;;;;;5096734;28;11436;-81
2022/07/09 00:49:42;;;;;;;;;14.33;12.00;23.30;53.20;;;;;;5079085;28;9638;-81
2022/07/09 00:52:12;;;;;;;;;11.00;11.00;23.20;53.40;;;;;;5097115;28;8787;-82
2022/07/09 00:54:40;;;;;;;;;12.00;10.67;23.20;53.50;;;;;;5096845;28;11419;-81
2022/07/09 00:57:07;;;;;;;;;10.33;9.33;23.10;54.00;;;;;;5096733;28;11433;-81
2022/07/09 00:59:35;;;;;;;;;9.33;8.67;23.00;54.40;;;;;;5096946;28;11415;-81
2022/07/09 01:02:02;;;;;;;;;10.67;10.67;22.90;54.60;;;;;;5096715;28;11393;-81
2022/07/09 01:04:28;;;;;;;;;11.00;10.00;23.10;53.40;;;;;;5096587;28;11433;-80
2022/07/09 01:06:54;;;;;;;;;9.33;9.00;23.10;53.20;;;;;;5096575;28;11494;-81
2022/07/09 01:09:20;;;;;;;;;10.00;10.00;23.10;53.40;;;;;;5078677;28;11479;-81
2022/07/09 01:11:47;;;;;;;;;9.33;9.33;23.10;53.60;;;;;;5096493;28;8783;-81
2022/07/09 01:14:13;;;;;;;;;8.33;8.33;22.90;54.10;;;;;;5096841;28;8826;-81
2022/07/09 01:16:39;;;;;;;;;13.00;11.00;23.20;53.40;;;;;;5078507;28;11435;-81
2022/07/09 01:19:06;;;;;;;;;8.33;8.33;23.20;53.30;;;;;;5096470;28;9506;-81
2022/07/09 01:21:31;;;;;;;;;9.00;9.00;23.00;54.00;;;;;;5096277;28;11394;-81
2022/07/09 01:23:57;;;;;;;;;11.00;11.00;23.00;54.80;;;;;;5096492;28;11491;-80
2022/07/09 01:26:24;;;;;;;;;9.00;9.00;23.20;53.00;;;;;;5096255;28;8771;-79
2022/07/09 01:28:50;;;;;;;;;7.67;7.33;23.40;52.10;;;;;;5096234;28;8842;-82
2022/07/09 01:31:16;;;;;;;;;8.67;8.67;23.70;51.10;;;;;;5096411;28;11404;-81
2022/07/09 01:33:42;;;;;;;;;7.00;7.00;23.90;50.10;;;;;;5096126;28;11389;-80
2022/07/09 01:36:08;;;;;;;;;9.33;9.33;23.90;49.70;;;;;;5096234;28;11407;-81
2022/07/09 01:38:34;;;;;;;;;10.33;10.33;23.90;49.70;;;;;;5078183;28;9533;-81
2022/07/09 01:40:59;;;;;;;;;9.00;9.00;23.80;51.20;;;;;;5096080;28;8756;-79
2022/07/09 01:43:25;;;;;;;;;11.00;10.00;23.60;50.90;;;;;;5096134;28;8841;-80
2022/07/09 01:45:51;;;;;;;;;11.00;10.00;23.40;51.80;;;;;;5095910;28;8752;-80
2022/07/09 01:48:17;;;;;;;;;10.33;10.33;23.10;53.10;;;;;;5095963;28;8792;-80
2022/07/09 01:50:43;;;;;;;;;11.00;11.00;23.20;52.70;;;;;;5095668;28;11411;-80
2022/07/09 01:53:09;;;;;;;;;10.00;10.00;23.50;51.70;;;;;;5095975;28;8760;-79
2022/07/09 01:55:35;;;;;;;;;8.67;8.67;23.80;51.00;;;;;;5095729;28;8778;-80
2022/07/09 01:58:01;;;;;;;;;11.00;11.00;23.80;50.70;;;;;;5095093;28;11423;-80
2022/07/09 02:00:30;;;;;;;;;8.33;7.33;24.00;50.30;;;;;;5095607;28;8772;-79
2022/07/09 02:02:56;;;;;;;;;8.33;8.00;24.10;50.10;;;;;;5095669;28;11523;-81
2022/07/09 02:05:22;;;;;;;;;6.00;6.00;24.00;50.00;;;;;;5095482;28;11527;-79
2022/07/09 02:07:49;;;;;;;;;9.00;9.00;23.90;50.70;;;;;;5095618;28;11504;-80
2022/07/09 02:10:15;;;;;;;;;8.00;8.00;24.00;51.00;;;;;;5095495;28;8887;-80
2022/07/09 02:12:41;;;;;;;;;8.00;8.00;24.10;51.70;;;;;;5095288;28;11403;-80
2022/07/09 02:15:10;;;;;;;;;10.00;10.00;23.80;53.00;;;;;;5095452;28;11371;-81
2022/07/09 02:17:36;;;;;;;;;10.33;8.00;23.50;54.60;;;;;;5095411;28;11411;-80
2022/07/09 02:20:03;;;;;;;;;8.67;8.67;23.10;56.40;;;;;;5095144;28;12092;-81
2022/07/09 02:22:28;;;;;;;;;8.00;8.00;22.90;57.20;;;;;;5095218;28;8791;-81
2022/07/09 02:24:54;;;;;;;;;11.67;11.00;22.80;57.30;;;;;;5095052;28;11402;-81
2022/07/09 02:27:20;;;;;;;;;11.00;11.00;22.70;58.00;;;;;;5095154;28;8851;-81
2022/07/09 02:29:46;;;;;;;;;11.33;11.00;22.60;58.40;;;;;;5095156;28;8780;-80
2022/07/09 02:32:12;;;;;;;;;9.00;9.00;22.80;58.20;;;;;;5094956;28;11415;-81
2022/07/09 02:34:38;;;;;;;;;12.67;11.33;22.90;58.20;;;;;;5095188;28;8806;-82
2022/07/09 02:37:08;;;;;;;;;13.00;10.67;22.90;59.40;;;;;;5094991;28;8763;-80
2022/07/09 02:39:34;;;;;;;;;13.33;13.33;22.90;58.00;;;;;;5095273;28;8728;-81
2022/07/09 02:42:00;;;;;;;;;17.00;14.33;22.90;58.20;;;;;;5094941;28;8763;-80
2022/07/09 02:44:26;;;;;;;;;14.00;14.00;23.00;57.60;;;;;;5094789;28;8779;-81
2022/07/09 02:46:51;;;;;;;;;17.00;17.00;22.90;58.10;;;;;;5076879;28;8790;-80
2022/07/09 02:49:18;;;;;;;;;13.67;13.00;22.70;59.30;;;;;;5094698;28;8940;-81
2022/07/09 02:51:43;;;;;;;;;13.33;13.33;22.60;60.20;;;;;;5095002;28;8878;-80
2022/07/09 02:54:09;;;;;;;;;10.67;10.67;22.30;60.90;;;;;;5094726;28;9326;-80
2022/07/09 02:56:35;;;;;;;;;14.33;14.33;22.20;61.20;;;;;;5094853;28;8866;-80
2022/07/09 02:59:02;;;;;;;;;10.33;10.33;22.10;62.50;;;;;;5094863;28;8756;-80
2022/07/09 03:01:28;;;;;;;;;13.00;12.00;21.90;63.30;;;;;;5094672;28;8799;-80
2022/07/09 03:03:54;;;;;;;;;9.00;9.00;21.80;63.60;;;;;;5094472;28;8815;-79
2022/07/09 03:06:21;;;;;;;;;10.00;10.00;21.80;63.80;;;;;;5094519;28;8798;-80
2022/07/09 03:08:47;;;;;;;;;12.00;11.00;21.90;63.00;;;;;;5094433;28;8764;-80
2022/07/09 03:11:13;;;;;;;;;13.00;13.00;22.30;61.80;;;;;;5076850;28;8914;-80
2022/07/09 03:13:38;;;;;;;;;12.67;12.67;22.20;61.80;;;;;;5076683;28;8763;-80
2022/07/09 03:16:06;;;;;;;;;13.33;13.33;22.00;62.40;;;;;;5094463;28;8792;-80
2022/07/09 03:18:32;;;;;;;;;12.00;12.00;21.90;62.80;;;;;;5094396;28;8838;-81
2022/07/09 03:20:57;;;;;;;;;14.33;14.00;21.80;63.20;;;;;;5094743;28;8852;-80
2022/07/09 03:23:23;;;;;;;;;13.00;13.00;22.00;62.20;;;;;;5094660;28;8796;-80
2022/07/09 03:25:49;;;;;;;;;10.33;10.00;22.40;60.60;;;;;;5094461;28;8849;-81
2022/07/09 03:28:15;;;;;;;;;12.00;11.00;22.70;59.40;;;;;;5094488;28;8878;-80
2022/07/09 03:30:41;;;;;;;;;9.00;9.00;22.90;58.30;;;;;;5076535;28;8859;-79
2022/07/09 03:33:06;;;;;;;;;10.00;10.00;23.10;57.40;;;;;;5094479;28;8767;-80
2022/07/09 03:35:32;;;;;;;;;8.00;8.00;23.10;57.60;;;;;;5094427;28;8798;-81
2022/07/09 03:37:58;;;;;;;;;8.33;8.33;23.10;57.60;;;;;;5094366;28;8778;-80
2022/07/09 03:40:24;;;;;;;;;10.33;10.33;23.00;59.00;;;;;;5094343;28;8871;-80
2022/07/09 03:42:50;;;;;;;;;13.00;12.67;23.00;59.00;;;;;;5094485;28;8799;-80
2022/07/09 03:45:16;;;;;;;;;10.67;10.33;23.20;59.10;;;;;;5094278;28;8840;-80
2022/07/09 03:47:42;;;;;;;;;11.33;10.33;23.20;58.90;;;;;;5094458;28;8783;-80
2022/07/09 03:50:08;;;;;;;;;9.33;9.33;23.20;59.40;;;;;;5094367;28;8850;-80
2022/07/09 03:52:34;;;;;;;;;11.00;11.00;22.90;60.70;;;;;;5094465;28;8810;-80
2022/07/09 03:55:00;;;;;;;;;13.33;13.33;22.70;61.10;;;;;;5093980;28;11406;-80
2022/07/09 03:57:26;;;;;;;;;10.67;10.67;22.70;61.40;;;;;;5094524;28;8784;-80
2022/07/09 03:59:51;;;;;;;;;11.33;11.33;22.40;62.10;;;;;;5094222;28;8790;-80
2022/07/09 04:02:17;;;;;;;;;12.33;12.33;22.20;64.00;;;;;;5076030;28;8788;-80
2022/07/09 04:04:43;;;;;;;;;11.00;11.00;21.80;65.60;;;;;;5093938;28;8780;-80
2022/07/09 04:07:09;;;;;;;;;10.00;10.00;21.70;66.40;;;;;;5094024;28;8806;-80
2022/07/09 04:09:36;;;;;;;;;12.67;12.67;21.90;65.30;;;;;;5094246;28;8874;-80
2022/07/09 04:12:02;;;;;;;;;17.67;16.67;22.10;64.40;;;;;;5093846;28;11971;-79
2022/07/09 04:14:27;;;;;;;;;12.00;11.67;22.30;64.00;;;;;;5094126;28;8791;-80
2022/07/09 04:16:53;;;;;;;;;14.00;14.00;21.90;66.10;;;;;;5093896;28;9397;-79
2022/07/09 04:19:19;;;;;;;;;12.00;12.00;21.60;67.90;;;;;;5072552;28;8832;-80
2022/07/09 04:21:45;;;;;;;;;13.00;13.00;21.60;67.50;;;;;;5076251;28;8787;-79
2022/07/09 04:24:10;;;;;;;;;12.67;12.67;21.40;67.80;;;;;;5077178;28;8802;-80
2022/07/09 04:26:36;;;;;;;;;12.00;12.00;21.30;67.90;;;;;;5077312;28;9117;-79
2022/07/09 04:29:02;;;;;;;;;13.33;12.67;21.40;67.40;;;;;;5077444;28;8877;-80
2022/07/09 04:31:28;;;;;;;;;12.33;12.33;21.50;66.70;;;;;;5076997;28;8761;-80
2022/07/09 04:33:54;;;;;;;;;12.33;12.33;21.50;67.10;;;;;;5077272;28;8760;-80
2022/07/09 04:36:19;;;;;;;;;13.00;12.00;21.50;66.60;;;;;;5076953;28;8799;-81
2022/07/09 04:38:45;;;;;;;;;11.33;11.33;21.50;66.20;;;;;;5076884;28;8803;-80
2022/07/09 04:41:11;;;;;;;;;15.00;15.00;21.50;66.20;;;;;;5075960;28;8839;-80
2022/07/09 04:43:37;;;;;;;;;12.33;12.33;21.40;66.70;;;;;;5076761;28;8800;-80
2022/07/09 04:46:03;;;;;;;;;16.00;14.00;21.60;65.80;;;;;;5076815;28;8772;-80
2022/07/09 04:48:28;;;;;;;;;18.33;16.00;21.80;64.30;;;;;;5077042;28;8838;-80
2022/07/09 04:50:55;;;;;;;;;13.67;12.33;22.10;63.30;;;;;;5077053;28;8780;-80
2022/07/09 04:53:21;;;;;;;;;11.00;11.00;22.20;62.50;;;;;;5077016;28;8776;-80
2022/07/09 04:55:47;;;;;;;;;10.00;10.00;22.30;62.00;;;;;;5076826;28;8761;-80
2022/07/09 04:58:13;;;;;;;;;15.67;14.33;22.20;62.70;;;;;;5077270;28;8788;-80
2022/07/09 05:00:39;;;;;;;;;15.33;13.67;22.00;63.20;;;;;;5077036;28;8825;-81
2022/07/09 05:03:04;;;;;;;;;11.33;11.33;22.00;63.30;;;;;;5076939;28;8815;-80
2022/07/09 05:05:30;;;;;;;;;11.00;11.00;21.70;64.30;;;;;;5076553;28;8780;-80
2022/07/09 05:07:56;;;;;;;;;14.00;12.67;21.40;65.80;;;;;;5076674;28;8776;-79
2022/07/09 05:10:22;;;;;;;;;11.67;11.33;21.20;66.90;;;;;;5076400;28;8780;-80
2022/07/09 05:12:47;;;;;;;;;14.33;13.67;21.10;67.80;;;;;;5076585;28;8768;-80
2022/07/09 05:15:14;;;;;;;;;13.00;13.00;21.20;67.20;;;;;;5075295;28;8795;-80
2022/07/09 05:17:40;;;;;;;;;13.67;13.67;21.50;66.00;;;;;;5076268;28;8776;-79
2022/07/09 05:20:08;;;;;;;;;9.67;9.67;21.50;65.80;;;;;;5075118;28;8828;-79
2022/07/09 05:22:35;;;;;;;;;12.67;12.67;21.40;65.70;;;;;;5076035;28;8857;-80
2022/07/09 05:25:03;;;;;;;;;11.67;11.67;21.30;66.30;;;;;;5076151;28;8744;-81
2022/07/09 05:27:29;;;;;;;;;12.67;12.67;21.20;66.60;;;;;;5076156;28;8757;-80
2022/07/09 05:29:55;;;;;;;;;15.67;15.67;21.40;66.20;;;;;;5076044;28;8791;-81
2022/07/09 05:32:21;;;;;;;;;17.33;17.33;21.40;66.10;;;;;;5074779;28;9433;-81
2022/07/09 05:34:46;;;;;;;;;14.67;14.67;21.40;66.80;;;;;;5075982;28;8760;-81
2022/07/09 05:37:12;;;;;;;;;8.00;8.00;21.20;66.50;;;;;;5075927;28;8808;-81
2022/07/09 05:39:39;;;;;;;;;15.33;15.33;21.30;66.00;;;;;;5075787;28;8760;-81
2022/07/09 05:42:05;;;;;;;;;16.33;16.33;21.20;66.70;;;;;;5075743;28;8867;-81
2022/07/09 05:44:31;;;;;;;;;11.00;11.00;21.20;66.50;;;;;;5075605;28;8796;-81
2022/07/09 05:46:57;;;;;;;;;13.33;13.33;21.30;66.10;;;;;;5075641;28;8761;-80
2022/07/09 05:49:23;;;;;;;;;13.00;13.00;21.40;65.70;;;;;;5075973;28;8839;-80
2022/07/09 05:51:49;;;;;;;;;14.33;13.33;21.40;65.90;;;;;;5075476;28;8794;-81
2022/07/09 05:54:14;;;;;;;;;11.00;11.00;21.40;66.00;;;;;;5075753;28;8815;-80
2022/07/09 05:56:41;;;;;;;;;16.33;14.67;21.70;64.70;;;;;;5075560;28;8811;-81
2022/07/09 05:59:07;;;;;;;;;16.00;13.67;21.80;64.10;;;;;;5075658;28;8868;-81
2022/07/09 06:01:38;;;;;;;;;14.33;13.67;21.90;63.50;;;;;;5075313;28;8784;-81
2022/07/09 06:04:04;;;;;;;;;9.33;9.33;21.90;62.50;;;;;;5075524;28;8808;-81
2022/07/09 06:06:30;;;;;;;;;15.33;13.33;21.80;63.10;;;;;;5075183;28;8772;-82
2022/07/09 06:08:56;;;;;;;;;11.33;11.33;21.70;63.20;;;;;;5074111;28;8776;-81
2022/07/09 06:11:22;;;;;;;;;10.00;10.00;21.80;63.70;;;;;;5075133;28;8772;-81
2022/07/09 06:13:48;;;;;;;;;12.33;11.33;21.80;62.50;;;;;;5074026;28;8788;-81
2022/07/09 06:16:14;;;;;;;;;12.33;12.33;21.90;62.40;;;;;;5075266;28;8789;-80
2022/07/09 06:18:40;;;;;;;;;10.67;10.67;21.80;62.60;;;;;;5073829;28;8820;-81
2022/07/09 06:21:05;;;;;;;;;14.67;14.67;21.80;62.40;;;;;;5075563;28;8787;-81
2022/07/09 06:23:31;;;;;;;;;9.67;8.33;21.90;61.70;;;;;;5075193;28;8890;-81
2022/07/09 06:25:57;;;;;;;;;12.67;12.67;22.00;61.30;;;;;;5075168;28;8925;-81
2022/07/09 06:28:23;;;;;;;;;9.33;9.33;21.80;61.90;;;;;;5074875;28;8830;-80
2022/07/09 06:30:48;;;;;;;;;14.00;12.00;21.70;62.40;;;;;;5074814;28;8861;-81
2022/07/09 06:33:14;;;;;;;;;10.67;10.67;21.50;62.70;;;;;;5074860;28;8772;-80
2022/07/09 06:35:40;;;;;;;;;12.00;11.33;21.60;62.30;;;;;;5074735;28;8868;-80
2022/07/09 06:38:06;;;;;;;;;10.00;10.00;21.50;63.40;;;;;;5074702;28;8830;-81
2022/07/09 06:40:32;;;;;;;;;12.67;12.67;21.70;62.90;;;;;;5074751;28;8760;-82
2022/07/09 06:42:58;;;;;;;;;10.00;10.00;21.70;62.90;;;;;;5074646;28;8901;-81
2022/07/09 06:45:24;;;;;;;;;10.00;10.00;21.70;62.70;;;;;;5074520;28;12082;-81
2022/07/09 06:47:50;;;;;;;;;13.00;12.33;21.90;61.70;;;;;;5074850;28;9568;-81
2022/07/09 06:50:16;;;;;;;;;13.00;12.67;21.80;62.10;;;;;;5074821;28;11452;-80
2022/07/09 06:52:41;;;;;;;;;14.00;13.00;21.50;62.90;;;;;;5074869;28;8773;-80
2022/07/09 06:55:08;;;;;;;;;12.00;12.00;21.30;63.90;;;;;;5074518;28;9410;-81
2022/07/09 06:57:34;;;;;;;;;12.33;12.33;21.20;63.80;;;;;;5074836;28;9647;-81
2022/07/09 07:00:01;;;;;;;;;13.00;11.67;21.00;64.20;;;;;;5074527;28;8765;-80
2022/07/09 07:02:27;;;;;;;;;10.00;8.00;21.00;63.90;;;;;;5074185;28;11469;-81
2022/07/09 07:04:52;;;;;;;;;9.67;9.67;21.40;62.60;;;;;;5074617;28;11481;-81
2022/07/09 07:07:18;;;;;;;;;14.00;14.00;21.50;62.00;;;;;;5074321;28;8788;-80
2022/07/09 07:09:44;;;;;;;;;9.67;9.67;21.70;61.10;;;;;;5074653;28;8875;-80
2022/07/09 07:12:10;;;;;;;;;10.67;10.67;21.70;60.80;;;;;;5074662;28;8772;-80
2022/07/09 07:14:36;;;;;;;;;11.00;11.00;21.70;60.70;;;;;;5074633;28;8764;-81
2022/07/09 07:17:01;;;;;;;;;10.00;10.00;21.70;60.90;;;;;;5074594;28;9418;-81
2022/07/09 07:19:28;;;;;;;;;14.00;11.00;21.60;60.80;;;;;;5086159;28;8812;-81
2022/07/09 07:21:54;;;;;;;;;14.33;12.67;21.70;60.40;;;;;;5094675;28;8763;-80
2022/07/09 07:24:23;;;;;;;;;12.33;12.33;21.80;60.40;;;;;;5094396;28;8805;-81
2022/07/09 07:26:49;;;;;;;;;8.33;8.00;21.70;60.00;;;;;;5094636;28;8781;-80
2022/07/09 07:29:15;;;;;;;;;11.33;11.33;21.60;60.20;;;;;;5094344;28;8772;-81
2022/07/09 07:31:43;;;;;;;;;7.33;7.33;21.50;60.00;;;;;;5094511;28;8764;-81
2022/07/09 07:34:09;;;;;;;;;9.67;9.00;21.40;60.60;;;;;;5094567;28;8878;-80
2022/07/09 07:36:35;;;;;;;;;12.67;12.67;21.40;60.30;;;;;;5094165;28;8780;-81
2022/07/09 07:39:01;;;;;;;;;10.67;10.00;21.50;60.50;;;;;;5094562;28;8759;-80
2022/07/09 07:41:27;;;;;;;;;11.67;11.67;21.50;60.10;;;;;;5094666;28;8871;-81
2022/07/09 07:43:52;;;;;;;;;15.00;14.00;21.50;60.40;;;;;;5094111;28;8866;-80
2022/07/09 07:46:18;;;;;;;;;10.33;10.33;21.80;60.30;;;;;;5094161;28;8782;-81
2022/07/09 07:48:44;;;;;;;;;12.00;12.00;21.70;60.30;;;;;;5094391;28;8814;-82
2022/07/09 07:51:10;;;;;;;;;9.00;8.67;21.60;61.10;;;;;;5094188;28;8756;-81
2022/07/09 07:53:36;;;;;;;;;13.33;13.33;21.80;60.50;;;;;;5094342;28;8764;-82
2022/07/09 07:56:05;;;;;;;;;9.67;9.67;21.80;60.30;;;;;;5096042;28;9417;-82
2022/07/09 07:58:31;;;;;;;;;9.33;9.33;22.00;59.50;;;;;;5098095;28;8764;-81
2022/07/09 08:00:57;;;;;;;;;11.00;11.00;22.10;59.20;;;;;;5098009;28;8798;-82
2022/07/09 08:03:23;;;;;;;;;7.00;7.00;22.10;58.40;;;;;;5097933;28;8812;-82
2022/07/09 08:05:49;;;;;;;;;11.67;11.00;22.20;58.10;;;;;;5097755;28;11378;-81
2022/07/09 08:08:15;;;;;;;;;12.00;12.00;22.40;57.70;;;;;;5097852;28;8783;-81
2022/07/09 08:10:41;;;;;;;;;11.00;10.00;22.60;57.20;;;;;;5098004;28;8778;-82
2022/07/09 08:13:06;;;;;;;;;10.00;10.00;22.30;57.90;;;;;;5097750;28;9451;-82
2022/07/09 08:15:32;;;;;;;;;9.00;9.00;22.30;57.80;;;;;;5097904;28;8788;-81
2022/07/09 08:17:58;;;;;;;;;10.67;9.33;22.30;57.20;;;;;;5097772;28;8803;-81
2022/07/09 08:20:24;;;;;;;;;11.00;11.00;22.40;56.60;;;;;;5097331;28;8826;-81
2022/07/09 08:22:50;;;;;;;;;9.33;9.33;22.50;56.40;;;;;;5097282;28;8818;-82
2022/07/09 08:25:16;;;;;;;;;10.67;9.33;22.90;55.60;;;;;;5097678;28;8844;-83
2022/07/09 08:27:41;;;;;;;;;12.33;11.67;22.40;56.20;;;;;;5097341;28;11373;-82
2022/07/09 08:30:08;;;;;;;;;7.00;7.00;22.20;57.40;;;;;;5097597;28;8772;-82
2022/07/09 08:32:33;;;;;;;;;10.33;10.33;22.30;56.90;;;;;;5097342;28;8768;-81
2022/07/09 08:34:59;;;;;;;;;9.67;9.67;22.10;57.20;;;;;;5097284;28;11399;-81
2022/07/09 08:37:25;;;;;;;;;10.00;10.00;22.00;57.90;;;;;;5097342;28;8768;-82
2022/07/09 08:39:51;;;;;;;;;12.00;12.00;21.90;57.60;;;;;;5097470;28;8752;-81
2022/07/09 08:42:17;;;;;;;;;12.00;11.00;22.10;57.60;;;;;;5097399;28;8770;-81
2022/07/09 08:44:46;;;;;;;;;10.33;10.00;21.90;58.60;;;;;;5097027;28;11463;-81
2022/07/09 08:47:14;;;;;;;;;11.00;11.00;22.20;58.00;;;;;;5079031;28;8780;-81
2022/07/09 08:49:40;;;;;;;;;10.00;10.00;22.20;57.90;;;;;;5097395;28;8772;-81
2022/07/09 08:52:06;;;;;;;;;10.67;10.67;22.20;57.90;;;;;;5096997;28;11436;-80
2022/07/09 08:54:33;;;;;;;;;9.33;9.33;22.40;57.70;;;;;;5097211;28;8775;-80
2022/07/09 08:56:59;;;;;;;;;11.67;11.67;22.50;56.70;;;;;;5096869;28;11499;-81
2022/07/09 08:59:25;;;;;;;;;13.00;11.00;22.60;55.70;;;;;;5096732;28;8752;-81
2022/07/09 09:01:50;;;;;;;;;11.00;11.00;22.40;56.50;;;;;;5096819;28;9416;-81
2022/07/09 09:04:17;;;;;;;;;11.33;11.33;22.30;57.20;;;;;;5096979;28;8995;-81
2022/07/09 09:06:43;;;;;;;;;10.67;10.67;22.30;56.80;;;;;;5096623;28;8863;-80
2022/07/09 09:09:10;;;;;;;;;12.67;12.67;22.30;56.90;;;;;;5096830;28;8949;-82
2022/07/09 09:11:37;;;;;;;;;12.00;12.00;22.40;56.30;;;;;;5096574;28;8760;-81
2022/07/09 09:14:03;;;;;;;;;11.00;11.00;22.50;56.50;;;;;;5096569;28;11528;-81
2022/07/09 09:16:29;;;;;;;;;11.33;10.67;22.70;56.10;;;;;;5096925;28;12054;-81
2022/07/09 09:19:00;;;;;;;;;15.33;13.00;22.60;56.30;;;;;;5096522;28;8834;-81
2022/07/09 09:21:26;;;;;;;;;10.00;10.00;22.60;56.20;;;;;;5096610;28;8777;-82
2022/07/09 09:23:55;;;;;;;;;11.67;11.67;22.80;56.00;;;;;;5096418;28;11566;-81
2022/07/09 09:26:27;;;;;;;;;11.33;11.33;23.10;54.20;;;;;;5096320;28;11949;-81
2022/07/09 09:28:59;;;;;;;;;12.00;12.00;23.10;54.70;;;;;;5096226;28;11444;-81
2022/07/09 09:31:26;;;;;;;;;12.00;12.00;23.00;55.20;;;;;;5096410;28;8776;-80
2022/07/09 09:33:54;;;;;;;;;12.00;12.00;23.20;54.50;;;;;;5096077;28;11402;-81
2022/07/09 09:36:57;;;;;;;;;8.00;8.00;23.40;54.30;;;;;;5096083;28;11515;-80
2022/07/09 09:39:27;;;;;;;;;12.33;12.33;23.30;54.40;;;;;;5096382;28;11512;-80
2022/07/09 09:42:01;;;;;;;;;14.67;14.00;23.20;54.20;;;;;;5095964;28;8787;-81
2022/07/09 09:44:37;;;;;;;;;12.67;12.00;22.90;55.50;;;;;;5096129;28;8783;-81
2022/07/09 09:47:04;;;;;;;;;13.00;13.00;23.20;55.00;;;;;;5079048;28;12130;-80
2022/07/09 09:49:30;;;;;;;;;12.00;12.00;23.40;53.00;;;;;;5077824;28;8804;-81
2022/07/09 09:52:05;;;;;;;;;9.00;9.00;23.60;52.60;;;;;;5095759;28;8772;-81
2022/07/09 09:54:38;;;;;;;;;15.33;13.33;23.80;51.90;;;;;;5095659;28;8788;-81
2022/07/09 09:57:09;;;;;;;;;12.00;12.00;24.30;51.10;;;;;;5095645;28;11439;-81
2022/07/09 09:59:40;;;;;;;;;14.67;13.67;24.30;50.60;;;;;;5095576;28;11999;-81
2022/07/09 10:02:09;;;;;;;;;12.00;11.00;24.40;50.70;;;;;;5095727;28;11457;-82
2022/07/09 10:04:36;;;;;;;;;11.67;11.67;24.40;50.70;;;;;;5077451;28;11468;-81
2022/07/09 10:07:04;;;;;;;;;7.00;7.00;24.40;50.90;;;;;;5077381;28;11437;-81
2022/07/09 10:09:30;;;;;;;;;11.67;11.67;24.60;50.00;;;;;;5095761;28;11446;-81
2022/07/09 10:11:56;;;;;;;;;13.00;13.00;24.50;50.30;;;;;;5095260;28;11404;-81
2022/07/09 10:14:24;;;;;;;;;11.25;10.00;24.50;50.30;;;;;;5095384;28;8757;-81
2022/07/09 10:16:51;;;;;;;;;12.00;11.67;24.50;50.40;;;;;;5095296;28;8838;-81
2022/07/09 10:19:33;;;;;;;;;11.67;11.00;24.50;50.10;;;;;;5094558;28;11483;-81
2022/07/09 10:21:59;;;;;;;;;11.00;11.00;24.60;49.30;;;;;;5095313;28;12224;-79
2022/07/09 10:24:33;;;;;;;;;11.00;10.00;24.60;50.10;;;;;;5094991;28;11455;-80
2022/07/09 10:27:17;;;;;;;;;13.00;13.00;24.50;50.50;;;;;;5095224;28;11442;-80
2022/07/09 10:29:56;;;;;;;;;12.00;10.67;24.40;50.70;;;;;;5095233;28;11420;-80
2022/07/09 10:32:28;;;;;;;;;12.67;11.00;24.50;50.00;;;;;;5076957;28;11413;-80
2022/07/09 10:35:03;;;;;;;;;11.67;11.67;24.60;51.20;;;;;;5094692;28;11424;-79
2022/07/09 10:37:45;;;;;;;;;13.00;11.67;24.60;50.20;;;;;;5094869;28;11496;-81
2022/07/09 10:40:18;;;;;;;;;11.33;11.33;24.50;50.30;;;;;;5094972;28;11400;-81
2022/07/09 10:42:57;;;;;;;;;13.00;12.00;24.50;50.10;;;;;;5076801;28;11488;-81
2022/07/09 10:45:28;;;;;;;;;9.00;9.00;24.50;50.70;;;;;;5095144;28;11513;-81
2022/07/09 10:47:59;;;;;;;;;13.00;11.33;24.40;51.10;;;;;;5094791;28;11856;-81
2022/07/09 10:50:27;;;;;;;;;12.00;11.00;24.60;50.00;;;;;;5076819;28;11433;-81
2022/07/09 10:52:54;;;;;;;;;11.25;11.00;24.80;50.00;;;;;;5077123;28;11472;-81
2022/07/09 10:55:22;;;;;;;;;12.50;11.25;25.10;49.00;;;;;;5094936;28;11474;-81
2022/07/09 10:57:48;;;;;;;;;9.50;9.50;24.90;48.40;;;;;;5094585;28;12054;-82
2022/07/09 11:00:18;;;;;;;;;13.25;12.25;24.80;48.80;;;;;;5094820;28;11494;-82
2022/07/09 11:02:55;;;;;;;;;11.00;11.00;24.90;48.80;;;;;;5094279;28;11430;-82
2022/07/09 11:05:22;;;;;;;;;12.00;10.75;25.30;48.10;;;;;;5094510;28;12208;-82
2022/07/09 11:07:56;;;;;;;;;9.00;9.00;25.30;47.90;;;;;;5094535;28;11411;-79
2022/07/09 11:10:21;;;;;;;;;11.00;11.00;25.20;48.00;;;;;;5095077;28;11406;-81
2022/07/09 11:12:48;;;;;;;;;11.33;11.33;25.00;48.90;;;;;;5094366;28;11442;-81
2022/07/09 11:15:18;;;;;;;;;13.00;11.50;25.20;48.50;;;;;;5094654;28;9449;-81
2022/07/09 11:17:53;;;;;;;;;10.50;10.50;25.70;48.20;;;;;;5094309;28;11423;-82
2022/07/09 11:20:19;;;;;;;;;11.00;11.00;25.90;47.20;;;;;;5094296;28;12138;-81
2022/07/09 11:22:48;;;;;;;;;10.75;10.75;25.50;46.10;;;;;;5094206;28;11405;-81
2022/07/09 11:25:17;;;;;;;;;9.50;9.50;25.30;47.10;;;;;;5094454;28;8756;-82
2022/07/09 11:27:43;;;;;;;;;10.25;10.25;25.40;47.00;;;;;;5094231;28;11414;-82
2022/07/09 11:30:14;;;;;;;;;9.00;9.00;25.60;46.90;;;;;;5094408;28;11500;-81
2022/07/09 11:32:42;;;;;;;;;9.00;9.00;25.50;47.30;;;;;;5098427;28;12042;-81
2022/07/09 11:35:08;;;;;;;;;11.00;11.00;25.50;46.70;;;;;;5098398;28;11523;-81
2022/07/09 11:37:34;;;;;;;;;11.00;11.00;25.50;47.40;;;;;;5098377;28;11427;-81
2022/07/09 11:40:00;;;;;;;;;10.00;10.00;25.40;47.40;;;;;;5098317;28;8767;-79
2022/07/09 11:42:25;;;;;;;;;10.50;10.50;25.90;46.80;;;;;;5098209;28;11457;-80
2022/07/09 11:44:57;;;;;;;;;10.50;10.00;26.20;45.20;;;;;;5098173;28;8799;-81
2022/07/09 11:47:36;;;;;;;;;9.25;9.25;27.10;44.50;;;;;;5098235;28;8822;-82
2022/07/09 11:50:09;;;;;;;;;9.25;9.25;28.50;41.40;;;;;;5098132;28;11411;-81
2022/07/09 11:52:35;;;;;;;;;12.00;10.50;30.00;39.70;;;;;;5097988;28;11418;-82
2022/07/09 11:55:08;;;;;;;;;8.50;8.50;31.80;37.50;;;;;;5098237;28;11450;-82
2022/07/09 11:57:36;;;;;;;;;9.25;9.25;32.70;33.40;;;;;;5097920;28;11378;-82
2022/07/09 12:00:05;;;;;;;;;8.00;8.00;32.70;33.00;;;;;;5097957;28;11398;-81
2022/07/09 12:02:31;;;;;;;;;9.25;9.25;32.00;33.70;;;;;;5097944;28;11477;-81
2022/07/09 12:04:58;;;;;;;;;7.75;7.75;32.40;33.80;;;;;;5097718;28;11406;-82
2022/07/09 12:07:24;;;;;;;;;7.75;7.75;33.60;32.40;;;;;;5097715;28;8767;-82
2022/07/09 12:10:01;;;;;;;;;5.75;5.75;33.60;31.00;;;;;;5097931;28;11406;-82
2022/07/09 12:12:27;;;;;;;;;6.00;6.00;34.20;31.70;;;;;;5098044;28;8803;-81
2022/07/09 12:14:57;;;;;;;;;8.00;8.00;35.30;29.60;;;;;;5097743;28;11421;-82
2022/07/09 12:17:24;;;;;;;;;8.00;8.00;36.00;29.20;;;;;;5079376;28;11579;-82
2022/07/09 12:19:51;;;;;;;;;6.50;6.50;37.10;27.30;;;;;;5097377;28;11420;-82
2022/07/09 12:22:18;;;;;;;;;9.25;9.25;37.70;27.50;;;;;;5097820;28;11407;-82
2022/07/09 12:24:44;;;;;;;;;7.00;7.00;37.50;27.60;;;;;;5097427;28;11413;-81
2022/07/09 12:27:10;;;;;;;;;5.25;5.25;37.30;26.50;;;;;;5097494;28;11508;-83
2022/07/09 12:29:36;;;;;;;;;5.50;5.50;36.60;26.70;;;;;;5097437;28;8767;-81
2022/07/09 12:32:03;;;;;;;;;4.00;4.00;37.50;26.30;;;;;;5097401;28;11361;-80
2022/07/09 12:34:29;;;;;;;;;7.25;7.25;38.00;25.20;;;;;;5097282;28;11424;-81
2022/07/09 12:36:55;;;;;;;;;5.75;5.75;37.70;26.00;;;;;;5097169;28;11504;-81